createdAt,value
2022-08-30T17:07:01.910Z,948.8
2022-08-30T17:08:08.070Z,948.8
2022-08-30T17:09:14.038Z,948.8
2022-08-30T17:10:20.068Z,948.8
2022-08-30T17:11:26.186Z,948.8
2022-08-30T17:12:32.224Z,948.8
2022-08-30T17:13:38.350Z,948.8
2022-08-30T17:14:43.525Z,948.8
2022-08-30T17:15:48.642Z,948.8
2022-08-30T17:16:54.756Z,948.8
2022-08-30T17:18:00.762Z,948.8
2022-08-30T17:19:06.806Z,948.8
2022-08-30T17:20:12.878Z,948.8
2022-08-30T17:21:18.911Z,948.8
2022-08-30T17:22:24.979Z,948.8
2022-08-30T17:23:31.038Z,948.8
2022-08-30T17:24:36.161Z,948.8
2022-08-30T17:25:42.220Z,948.8
2022-08-30T17:26:48.295Z,948.9
2022-08-30T17:27:54.389Z,948.9
2022-08-30T17:29:00.426Z,948.9
2022-08-30T17:30:06.479Z,948.9
2022-08-30T17:31:12.550Z,948.9
2022-08-30T17:32:18.618Z,948.9
2022-08-30T17:33:24.715Z,948.9
2022-08-30T17:34:30.795Z,948.9
2022-08-30T17:35:36.827Z,948.9
2022-08-30T17:36:42.896Z,948.9
2022-08-30T17:37:48.971Z,948.9
2022-08-30T17:38:55.046Z,948.8
2022-08-30T17:40:01.103Z,948.9
2022-08-30T17:41:07.145Z,948.9
2022-08-30T17:42:13.207Z,948.9
2022-08-30T17:43:19.235Z,948.9
2022-08-30T17:44:25.328Z,948.8
2022-08-30T17:45:31.381Z,948.8
2022-08-30T17:46:37.480Z,948.8
2022-08-30T17:47:43.549Z,948.8
2022-08-30T17:48:49.574Z,948.8
2022-08-30T17:49:55.679Z,948.8
2022-08-30T17:51:01.737Z,948.8
2022-08-30T17:52:07.738Z,948.8
2022-08-30T17:53:13.837Z,948.8
2022-08-30T17:54:19.879Z,948.8
2022-08-30T17:55:25.947Z,948.8
2022-08-30T17:56:32.011Z,948.8
2022-08-30T17:57:37.055Z,948.8
2022-08-30T17:58:43.121Z,948.8
2022-08-30T17:59:49.177Z,948.8
2022-08-30T18:00:55.217Z,948.8
2022-08-30T18:02:01.266Z,948.8
2022-08-30T18:03:07.365Z,948.8
2022-08-30T18:04:13.421Z,948.8
2022-08-30T18:05:19.472Z,948.8
2022-08-30T18:06:25.543Z,948.9
2022-08-30T18:07:31.596Z,948.9
2022-08-30T18:08:37.669Z,948.9
2022-08-30T18:09:43.718Z,948.9
2022-08-30T18:10:48.837Z,948.9
2022-08-30T18:11:54.871Z,948.9
2022-08-30T18:13:00.988Z,948.9
2022-08-30T18:14:06.999Z,948.9
2022-08-30T18:15:13.050Z,948.9
2022-08-30T18:16:19.118Z,948.9
2022-08-30T18:17:25.204Z,948.9
2022-08-30T18:18:31.278Z,948.9
2022-08-30T18:19:37.305Z,948.9
2022-08-30T18:20:43.378Z,948.9
2022-08-30T18:21:49.437Z,948.9
2022-08-30T18:22:55.500Z,948.9
2022-08-30T18:24:00.625Z,948.9
2022-08-30T18:25:06.737Z,948.9
2022-08-30T18:26:11.765Z,948.9
2022-08-30T18:27:16.857Z,948.9
2022-08-30T18:28:22.953Z,948.9
2022-08-30T18:29:29.030Z,948.9
2022-08-30T18:30:35.064Z,948.9
2022-08-30T18:31:41.169Z,948.9
2022-08-30T18:32:47.251Z,948.9
2022-08-30T18:33:53.276Z,948.8
2022-08-30T18:34:59.406Z,948.8
2022-08-30T18:36:05.467Z,948.8
2022-08-30T18:37:11.505Z,948.8
2022-08-30T18:38:17.596Z,948.8
2022-08-30T18:39:23.695Z,948.8
2022-08-30T18:40:29.732Z,948.8
2022-08-30T18:41:34.838Z,948.7
2022-08-30T18:42:39.969Z,948.7
2022-08-30T18:43:46.035Z,948.7
2022-08-30T18:44:51.115Z,948.8
2022-08-30T18:45:56.231Z,948.8
2022-08-30T18:47:03.602Z,948.8
2022-08-30T18:48:08.419Z,948.8
2022-08-30T18:49:14.450Z,948.8
2022-08-30T18:50:20.489Z,948.9
2022-08-30T18:51:26.577Z,948.9
2022-08-30T18:52:32.652Z,948.9
2022-08-30T18:53:38.730Z,948.9
2022-08-30T18:54:44.800Z,949
2022-08-30T18:55:50.888Z,949
2022-08-30T18:56:56.968Z,949
2022-08-30T18:58:03.418Z,949
2022-08-30T18:59:09.115Z,949
2022-08-30T19:00:14.206Z,949.1
2022-08-30T19:01:20.262Z,949.1
2022-08-30T19:02:26.309Z,949.1
2022-08-30T19:03:32.498Z,949.1
2022-08-30T19:04:38.499Z,949.1
2022-08-30T19:05:45.011Z,949.1
2022-08-30T19:06:50.660Z,949.1
2022-08-30T19:07:56.696Z,949.1
2022-08-30T19:09:02.769Z,949.1
2022-08-30T19:10:08.854Z,949.2
2022-08-30T19:11:14.902Z,949.2
2022-08-30T19:12:21.020Z,949.2
2022-08-30T19:13:26.077Z,949.2
2022-08-30T19:14:31.200Z,949.2
2022-08-30T19:15:36.286Z,949.2
2022-08-30T19:16:41.354Z,949.2
2022-08-30T19:17:47.475Z,949.2
2022-08-30T19:18:53.539Z,949.2
2022-08-30T19:19:59.636Z,949.2
2022-08-30T19:21:05.650Z,949.2
2022-08-30T19:22:11.725Z,949.2
2022-08-30T19:23:17.840Z,949.2
2022-08-30T19:24:23.895Z,949.3
2022-08-30T19:25:29.984Z,949.3
2022-08-30T19:26:36.065Z,949.3
2022-08-30T19:27:42.161Z,949.3
2022-08-30T19:28:48.205Z,949.3
2022-08-30T19:29:54.291Z,949.3
2022-08-30T19:30:59.468Z,949.3
2022-08-30T19:32:05.517Z,949.3
2022-08-30T19:33:11.549Z,949.3
2022-08-30T19:34:17.624Z,949.3
2022-08-30T19:35:23.690Z,949.4
2022-08-30T19:36:29.813Z,949.4
2022-08-30T19:37:35.882Z,949.4
2022-08-30T19:38:41.011Z,949.4
2022-08-30T19:39:46.073Z,949.4
2022-08-30T19:40:52.122Z,949.4
2022-08-30T19:41:58.200Z,949.4
2022-08-30T19:43:04.297Z,949.4
2022-08-30T19:44:10.368Z,949.4
2022-08-30T19:45:16.450Z,949.5
2022-08-30T19:46:22.506Z,949.5
2022-08-30T19:47:28.601Z,949.5
2022-08-30T19:48:34.651Z,949.5
2022-08-30T19:49:40.713Z,949.5
2022-08-30T19:50:46.824Z,949.6
2022-08-30T19:51:52.918Z,949.6
2022-08-30T19:52:58.960Z,949.6
2022-08-30T19:54:04.033Z,949.6
2022-08-30T19:55:10.123Z,949.6
2022-08-30T19:56:16.195Z,949.7
2022-08-30T19:57:22.290Z,949.7
2022-08-30T19:58:28.373Z,949.7
2022-08-30T19:59:34.435Z,949.7
2022-08-30T20:00:40.538Z,949.8
2022-08-30T20:01:45.613Z,949.8
2022-08-30T20:02:50.701Z,949.8
2022-08-30T20:03:55.819Z,949.8
2022-08-30T20:05:00.911Z,949.8
2022-08-30T20:06:06.023Z,949.9
2022-08-30T20:07:11.119Z,949.9
2022-08-30T20:08:16.214Z,950
2022-08-30T20:09:21.306Z,950
2022-08-30T20:10:27.391Z,950
2022-08-30T20:11:33.469Z,950.1
2022-08-30T20:12:39.550Z,950.2
2022-08-30T20:13:45.683Z,950.2
2022-08-30T20:14:51.700Z,950.3
2022-08-30T20:15:57.774Z,950.3
2022-08-30T20:17:03.847Z,950.4
2022-08-30T20:18:09.952Z,950.3
2022-08-30T20:19:16.003Z,950.3
2022-08-30T20:20:22.084Z,950.3
2022-08-30T20:21:28.166Z,950.3
2022-08-30T20:22:34.260Z,950.3
2022-08-30T20:23:39.369Z,950.3
2022-08-30T20:24:45.445Z,950.3
2022-08-30T20:25:51.512Z,950.3
2022-08-30T20:26:56.633Z,950.3
2022-08-30T20:28:02.701Z,950.3
2022-08-30T20:29:08.769Z,950.4
2022-08-30T20:30:14.842Z,950.3
2022-08-30T20:31:19.966Z,950.3
2022-08-30T20:32:25.050Z,950.3
2022-08-30T20:33:30.180Z,950.4
2022-08-30T20:34:35.267Z,950.4
2022-08-30T20:35:41.359Z,950.4
2022-08-30T20:36:47.440Z,950.4
2022-08-30T20:37:53.525Z,950.4
2022-08-30T20:38:59.600Z,950.4
2022-08-30T20:40:05.658Z,950.4
2022-08-30T20:41:11.760Z,950.4
2022-08-30T20:42:17.812Z,950.3
2022-08-30T20:43:23.907Z,950.3
2022-08-30T20:44:29.961Z,950.3
2022-08-30T20:45:36.043Z,950.3
2022-08-30T20:46:42.120Z,950.3
2022-08-30T20:47:48.185Z,950.2
2022-08-30T20:48:53.290Z,950.2
2022-08-30T20:49:59.384Z,950.1
2022-08-30T20:51:05.465Z,950.1
2022-08-30T20:52:11.573Z,950.1
2022-08-30T20:53:17.616Z,950.1
2022-08-30T20:54:23.686Z,950.1
2022-08-30T20:55:29.758Z,950.1
2022-08-30T20:56:34.891Z,950.1
2022-08-30T20:57:39.959Z,950.1
2022-08-30T20:58:45.091Z,950.1
2022-08-30T20:59:50.186Z,950.1
2022-08-30T21:00:56.278Z,950.1
2022-08-30T21:02:02.321Z,950.2
2022-08-30T21:03:08.418Z,950.2
2022-08-30T21:04:14.479Z,950.2
2022-08-30T21:05:20.552Z,950.2
2022-08-30T21:06:26.598Z,950.2
2022-08-30T21:07:32.684Z,950.2
2022-08-30T21:08:38.745Z,950.2
2022-08-30T21:09:44.830Z,950.2
2022-08-30T21:10:50.910Z,950.2
2022-08-30T21:11:56.988Z,950.2
2022-08-30T21:13:03.046Z,950.3
2022-08-30T21:14:08.149Z,950.3
2022-08-30T21:15:14.225Z,950.3
2022-08-30T21:16:20.292Z,950.3
2022-08-30T21:17:26.356Z,950.3
2022-08-30T21:18:32.447Z,950.3
2022-08-30T21:19:38.483Z,950.3
2022-08-30T21:20:44.587Z,950.4
2022-08-30T21:21:49.682Z,950.4
2022-08-30T21:22:54.756Z,950.4
2022-08-30T21:24:00.835Z,950.4
2022-08-30T21:25:05.978Z,950.4
2022-08-30T21:26:11.034Z,950.4
2022-08-30T21:27:17.137Z,950.4
2022-08-30T21:28:23.199Z,950.5
2022-08-30T21:29:29.283Z,950.5
2022-08-30T21:30:35.349Z,950.5
2022-08-30T21:31:41.448Z,950.5
2022-08-30T21:32:47.514Z,950.5
2022-08-30T21:33:53.563Z,950.5
2022-08-30T21:34:59.629Z,950.5
2022-08-30T21:36:05.705Z,950.5
2022-08-30T21:37:11.774Z,950.5
2022-08-30T21:38:17.855Z,950.5
2022-08-30T21:39:23.942Z,950.5
2022-08-30T21:40:29.035Z,950.5
2022-08-30T21:41:35.111Z,950.5
2022-08-30T21:42:41.198Z,950.5
2022-08-30T21:43:47.271Z,950.5
2022-08-30T21:44:53.352Z,950.5
2022-08-30T21:45:59.423Z,950.5
2022-08-30T21:47:05.514Z,950.5
2022-08-30T21:48:10.622Z,950.5
2022-08-30T21:49:15.746Z,950.5
2022-08-30T21:50:21.831Z,950.6
2022-08-30T21:51:26.895Z,950.6
2022-08-30T21:52:31.984Z,950.6
2022-08-30T21:53:38.040Z,950.6
2022-08-30T21:54:44.130Z,950.6
2022-08-30T21:55:50.192Z,950.7
2022-08-30T21:56:56.278Z,950.7
2022-08-30T21:58:02.351Z,950.7
2022-08-30T21:59:08.430Z,950.7
2022-08-30T22:00:14.501Z,950.7
2022-08-30T22:01:20.583Z,950.7
2022-08-30T22:02:26.657Z,950.7
2022-08-30T22:03:32.747Z,950.7
2022-08-30T22:04:38.825Z,950.7
2022-08-30T22:05:44.898Z,950.8
2022-08-30T22:06:49.990Z,950.8
2022-08-30T22:07:56.068Z,950.8
2022-08-30T22:09:02.162Z,950.8
2022-08-30T22:10:08.227Z,950.8
2022-08-30T22:11:14.300Z,950.9
2022-08-30T22:12:20.382Z,950.9
2022-08-30T22:13:26.465Z,950.9
2022-08-30T22:14:31.575Z,950.9
2022-08-30T22:15:36.662Z,950.9
2022-08-30T22:16:42.723Z,950.9
2022-08-30T22:17:48.802Z,950.9
2022-08-30T22:18:54.879Z,950.9
2022-08-30T22:20:01.004Z,950.9
2022-08-30T22:21:07.051Z,950.9
2022-08-30T22:22:13.121Z,950.9
2022-08-30T22:23:19.206Z,951
2022-08-30T22:24:25.288Z,951
2022-08-30T22:25:31.408Z,951
2022-08-30T22:26:37.470Z,951
2022-08-30T22:27:43.506Z,951
2022-08-30T22:28:49.600Z,951
2022-08-30T22:29:54.689Z,951
2022-08-30T22:31:00.771Z,951
2022-08-30T22:32:06.871Z,951
2022-08-30T22:33:12.932Z,951
2022-08-30T22:34:19.015Z,951
2022-08-30T22:35:25.109Z,951
2022-08-30T22:36:31.194Z,951
2022-08-30T22:37:36.308Z,951
2022-08-30T22:38:41.407Z,951
2022-08-30T22:39:46.499Z,951
2022-08-30T22:40:51.614Z,951
2022-08-30T22:41:56.724Z,951
2022-08-30T22:43:01.833Z,951
2022-08-30T22:44:07.925Z,951
2022-08-30T22:45:14.047Z,951
2022-08-30T22:46:20.106Z,951
2022-08-30T22:47:26.168Z,951
2022-08-30T22:48:32.256Z,951
2022-08-30T22:49:38.320Z,951
2022-08-30T22:50:44.401Z,951
2022-08-30T22:51:50.461Z,950.9
2022-08-30T22:52:56.545Z,950.9
2022-08-30T22:54:02.627Z,950.9
2022-08-30T22:55:08.700Z,950.9
2022-08-30T22:56:14.775Z,950.9
2022-08-30T22:57:19.901Z,950.9
2022-08-30T22:58:25.947Z,950.9
2022-08-30T22:59:32.016Z,950.8
2022-08-30T23:00:38.096Z,950.8
2022-08-30T23:01:44.152Z,950.8
2022-08-30T23:02:50.240Z,950.8
2022-08-30T23:03:56.316Z,950.8
2022-08-30T23:05:01.417Z,950.8
2022-08-30T23:06:06.517Z,950.8
2022-08-30T23:07:11.624Z,950.8
2022-08-30T23:08:16.718Z,950.8
2022-08-30T23:09:22.798Z,950.8
2022-08-30T23:10:28.882Z,950.9
2022-08-30T23:11:34.946Z,950.9
2022-08-30T23:12:41.044Z,950.9
2022-08-30T23:13:47.101Z,950.9
2022-08-30T23:14:53.214Z,950.9
2022-08-30T23:15:59.318Z,950.9
2022-08-30T23:17:05.349Z,950.9
2022-08-30T23:18:11.451Z,950.9
2022-08-30T23:19:17.534Z,950.9
2022-08-30T23:20:23.593Z,950.9
2022-08-30T23:21:29.705Z,950.9
2022-08-30T23:22:34.790Z,950.9
2022-08-30T23:23:40.898Z,950.9
2022-08-30T23:24:46.951Z,950.9
2022-08-30T23:25:53.024Z,950.9
2022-08-30T23:26:59.093Z,950.9
2022-08-30T23:28:05.173Z,950.9
2022-08-30T23:29:11.263Z,950.9
2022-08-30T23:30:16.364Z,950.9
2022-08-30T23:31:21.463Z,950.9
2022-08-30T23:32:27.533Z,950.9
2022-08-30T23:33:33.637Z,950.9
2022-08-30T23:34:39.684Z,950.9
2022-08-30T23:35:45.793Z,950.8
2022-08-30T23:36:51.835Z,950.8
2022-08-30T23:37:57.914Z,950.8
2022-08-30T23:39:03.968Z,950.8
2022-08-30T23:40:10.057Z,950.8
2022-08-30T23:41:16.139Z,950.8
2022-08-30T23:42:22.204Z,950.8
2022-08-30T23:43:28.297Z,950.8
2022-08-30T23:44:34.338Z,950.8
2022-08-30T23:45:39.413Z,950.8
2022-08-30T23:46:45.493Z,950.8
2022-08-30T23:47:51.580Z,950.8
2022-08-30T23:48:57.652Z,950.7
2022-08-30T23:50:03.737Z,950.7
2022-08-30T23:51:09.815Z,950.7
2022-08-30T23:52:15.899Z,950.7
2022-08-30T23:53:21.002Z,950.7
2022-08-30T23:54:26.091Z,950.7
2022-08-30T23:55:31.204Z,950.7
2022-08-30T23:56:36.297Z,950.7
2022-08-30T23:57:41.400Z,950.7
2022-08-30T23:58:46.486Z,950.7
2022-08-30T23:59:52.566Z,950.7
